sensor_id;sensor_type;location;lat;lon;timestamp;temperature;humidity
54946;DHT22;40846;44.788;20.486;2022-11-11T00:01:04;308.10;2304.00
54946;DHT22;40846;44.788;20.486;2022-11-11T00:03:30;308.10;2304.00
54946;DHT22;40846;44.788;20.486;2022-11-11T00:06:07;308.00;2304.00
54946;DHT22;40846;44.788;20.486;2022-11-11T00:08:36;308.00;2304.00
54946;DHT22;40846;44.788;20.486;2022-11-11T00:11:07;308.00;2304.00
54946;DHT22;40846;44.788;20.486;2022-11-11T00:13:33;308.00;2304.00
54946;DHT22;40846;44.788;20.486;2022-11-11T00:18:35;308.10;2304.00
54946;DHT22;40846;44.788;20.486;2022-11-11T00:21:20;308.10;2304.00
54946;DHT22;40846;44.788;20.486;2022-11-11T00:24:07;308.00;2304.00
54946;DHT22;40846;44.788;20.486;2022-11-11T00:26:56;308.00;2304.00
54946;DHT22;40846;44.788;20.486;2022-11-11T00:29:21;308.00;2304.00
54946;DHT22;40846;44.788;20.486;2022-11-11T00:31:47;308.00;2304.00
54946;DHT22;40846;44.788;20.486;2022-11-11T00:34:31;308.00;2304.00
54946;DHT22;40846;44.788;20.486;2022-11-11T00:36:57;308.00;2304.00
54946;DHT22;40846;44.788;20.486;2022-11-11T00:39:22;307.90;2304.00
54946;DHT22;40846;44.788;20.486;2022-11-11T00:41:48;307.90;2304.00
54946;DHT22;40846;44.788;20.486;2022-11-11T00:44:13;307.90;2304.00
54946;DHT22;40846;44.788;20.486;2022-11-11T00:46:39;307.90;2304.00
54946;DHT22;40846;44.788;20.486;2022-11-11T00:49:23;307.90;2304.00
54946;DHT22;40846;44.788;20.486;2022-11-11T00:52:18;307.90;2304.00
54946;DHT22;40846;44.788;20.486;2022-11-11T00:54:44;307.80;2304.00
54946;DHT22;40846;44.788;20.486;2022-11-11T00:57:09;307.70;2304.00
54946;DHT22;40846;44.788;20.486;2022-11-11T00:59:36;307.70;2304.00
54946;DHT22;40846;44.788;20.486;2022-11-11T01:02:04;307.80;2304.00
54946;DHT22;40846;44.788;20.486;2022-11-11T01:04:30;307.90;2304.00
54946;DHT22;40846;44.788;20.486;2022-11-11T01:06:55;307.80;2304.00
54946;DHT22;40846;44.788;20.486;2022-11-11T01:09:21;307.90;2304.00
54946;DHT22;40846;44.788;20.486;2022-11-11T01:11:47;308.00;2304.00
54946;DHT22;40846;44.788;20.486;2022-11-11T01:14:12;308.00;2304.00
54946;DHT22;40846;44.788;20.486;2022-11-11T01:16:38;308.00;2304.00
54946;DHT22;40846;44.788;20.486;2022-11-11T01:19:04;308.10;2304.00
54946;DHT22;40846;44.788;20.486;2022-11-11T01:21:29;332.80;2329.60
54946;DHT22;40846;44.788;20.486;2022-11-11T01:23:55;308.10;2304.00
54946;DHT22;40846;44.788;20.486;2022-11-11T01:26:25;332.80;2329.60
54946;DHT22;40846;44.788;20.486;2022-11-11T01:28:54;308.10;2304.00
54946;DHT22;40846;44.788;20.486;2022-11-11T01:31:21;332.80;2329.60
54946;DHT22;40846;44.788;20.486;2022-11-11T01:33:47;332.80;2329.60
54946;DHT22;40846;44.788;20.486;2022-11-11T01:36:16;308.10;2304.00
54946;DHT22;40846;44.788;20.486;2022-11-11T01:38:42;332.80;2329.60
54946;DHT22;40846;44.788;20.486;2022-11-11T01:41:12;332.80;2329.60
54946;DHT22;40846;44.788;20.486;2022-11-11T01:43:56;308.00;2304.00
54946;DHT22;40846;44.788;20.486;2022-11-11T01:46:54;307.90;2304.00
54946;DHT22;40846;44.788;20.486;2022-11-11T01:52:10;307.90;2304.00
54946;DHT22;40846;44.788;20.486;2022-11-11T01:57:26;307.80;2304.00
54946;DHT22;40846;44.788;20.486;2022-11-11T01:59:56;307.80;2304.00
54946;DHT22;40846;44.788;20.486;2022-11-11T02:05:00;307.80;2304.00
54946;DHT22;40846;44.788;20.486;2022-11-11T02:07:47;307.60;2304.00
54946;DHT22;40846;44.788;20.486;2022-11-11T02:10:13;307.70;2304.00
54946;DHT22;40846;44.788;20.486;2022-11-11T02:12:39;307.70;2304.00
54946;DHT22;40846;44.788;20.486;2022-11-11T02:15:23;307.80;2304.00
54946;DHT22;40846;44.788;20.486;2022-11-11T02:17:49;307.80;2304.00
54946;DHT22;40846;44.788;20.486;2022-11-11T02:20:19;307.90;2304.00
54946;DHT22;40846;44.788;20.486;2022-11-11T02:25:27;307.70;2304.00
54946;DHT22;40846;44.788;20.486;2022-11-11T02:28:00;307.80;2304.00
54946;DHT22;40846;44.788;20.486;2022-11-11T02:30:28;307.80;2304.00
54946;DHT22;40846;44.788;20.486;2022-11-11T02:32:54;307.80;2304.00
54946;DHT22;40846;44.788;20.486;2022-11-11T02:35:22;307.70;2304.00
54946;DHT22;40846;44.788;20.486;2022-11-11T02:37:51;307.50;2304.00
54946;DHT22;40846;44.788;20.486;2022-11-11T02:40:39;307.60;2304.00
54946;DHT22;40846;44.788;20.486;2022-11-11T02:43:28;307.60;2304.00
54946;DHT22;40846;44.788;20.486;2022-11-11T02:45:54;307.60;2304.00
54946;DHT22;40846;44.788;20.486;2022-11-11T02:48:21;307.70;2304.00
54946;DHT22;40846;44.788;20.486;2022-11-11T02:50:47;307.80;2304.00
54946;DHT22;40846;44.788;20.486;2022-11-11T02:53:13;307.80;2304.00
54946;DHT22;40846;44.788;20.486;2022-11-11T02:55:39;307.80;2304.00
54946;DHT22;40846;44.788;20.486;2022-11-11T02:58:04;307.80;2304.00
54946;DHT22;40846;44.788;20.486;2022-11-11T03:00:30;307.90;2304.00
54946;DHT22;40846;44.788;20.486;2022-11-11T03:02:56;307.80;2304.00
54946;DHT22;40846;44.788;20.486;2022-11-11T03:05:22;307.90;2304.00
54946;DHT22;40846;44.788;20.486;2022-11-11T03:07:48;307.80;2304.00
54946;DHT22;40846;44.788;20.486;2022-11-11T03:10:15;307.80;2304.00
54946;DHT22;40846;44.788;20.486;2022-11-11T03:12:40;307.80;2304.00
54946;DHT22;40846;44.788;20.486;2022-11-11T03:15:06;307.70;2304.00
54946;DHT22;40846;44.788;20.486;2022-11-11T03:17:32;307.60;2304.00
54946;DHT22;40846;44.788;20.486;2022-11-11T03:20:12;307.60;2304.00
54946;DHT22;40846;44.788;20.486;2022-11-11T03:23:01;307.50;2304.00
54946;DHT22;40846;44.788;20.486;2022-11-11T03:25:28;307.50;2304.00
54946;DHT22;40846;44.788;20.486;2022-11-11T03:28:13;307.50;2304.00
54946;DHT22;40846;44.788;20.486;2022-11-11T03:30:44;307.60;2304.00
54946;DHT22;40846;44.788;20.486;2022-11-11T03:33:10;307.60;2304.00
54946;DHT22;40846;44.788;20.486;2022-11-11T03:35:36;307.70;2304.00
54946;DHT22;40846;44.788;20.486;2022-11-11T03:38:05;307.70;2304.00
54946;DHT22;40846;44.788;20.486;2022-11-11T03:40:42;307.70;2304.00
54946;DHT22;40846;44.788;20.486;2022-11-11T03:43:08;307.60;2304.00
54946;DHT22;40846;44.788;20.486;2022-11-11T03:45:34;307.60;2304.00
54946;DHT22;40846;44.788;20.486;2022-11-11T03:47:59;307.50;2304.00
54946;DHT22;40846;44.788;20.486;2022-11-11T03:50:25;307.40;2304.00
54946;DHT22;40846;44.788;20.486;2022-11-11T03:52:51;307.50;2304.00
54946;DHT22;40846;44.788;20.486;2022-11-11T03:55:16;307.60;2304.00
54946;DHT22;40846;44.788;20.486;2022-11-11T03:57:44;307.70;2304.00
54946;DHT22;40846;44.788;20.486;2022-11-11T04:00:16;307.60;2304.00
54946;DHT22;40846;44.788;20.486;2022-11-11T04:02:42;307.60;2304.00
54946;DHT22;40846;44.788;20.486;2022-11-11T04:05:26;307.50;2304.00
54946;DHT22;40846;44.788;20.486;2022-11-11T04:08:12;307.50;2304.00
54946;DHT22;40846;44.788;20.486;2022-11-11T04:11:04;307.50;2304.00
54946;DHT22;40846;44.788;20.486;2022-11-11T04:13:32;307.30;2304.00
54946;DHT22;40846;44.788;20.486;2022-11-11T04:16:16;307.40;2304.00
54946;DHT22;40846;44.788;20.486;2022-11-11T04:18:42;307.50;2304.00
54946;DHT22;40846;44.788;20.486;2022-11-11T04:21:26;307.50;2304.00
54946;DHT22;40846;44.788;20.486;2022-11-11T04:26:58;307.40;2304.00
54946;DHT22;40846;44.788;20.486;2022-11-11T04:29:24;307.50;2304.00
54946;DHT22;40846;44.788;20.486;2022-11-11T04:34:49;307.30;2304.00
54946;DHT22;40846;44.788;20.486;2022-11-11T04:37:16;307.40;2304.00
54946;DHT22;40846;44.788;20.486;2022-11-11T04:39:43;307.30;2304.00
54946;DHT22;40846;44.788;20.486;2022-11-11T04:42:27;307.40;2304.00
54946;DHT22;40846;44.788;20.486;2022-11-11T06:33:04;307.60;2304.00
54946;DHT22;40846;44.788;20.486;2022-11-11T06:35:33;307.40;2304.00
54946;DHT22;40846;44.788;20.486;2022-11-11T06:37:59;282.50;2278.40
54946;DHT22;40846;44.788;20.486;2022-11-11T06:40:25;282.40;2278.40
54946;DHT22;40846;44.788;20.486;2022-11-11T06:42:50;282.40;2278.40
54946;DHT22;40846;44.788;20.486;2022-11-11T06:45:17;282.50;2278.40
54946;DHT22;40846;44.788;20.486;2022-11-11T07:36:27;282.10;2278.40
54946;DHT22;40846;44.788;20.486;2022-11-11T07:38:52;281.80;2278.40
54946;DHT22;40846;44.788;20.486;2022-11-11T07:41:18;281.70;2278.40
54946;DHT22;40846;44.788;20.486;2022-11-11T07:43:44;281.60;2278.40
54946;DHT22;40846;44.788;20.486;2022-11-11T07:46:10;281.70;2278.40
54946;DHT22;40846;44.788;20.486;2022-11-11T07:48:35;281.60;2278.40
54946;DHT22;40846;44.788;20.486;2022-11-11T07:51:01;281.60;2278.40
54946;DHT22;40846;44.788;20.486;2022-11-11T07:53:27;281.60;2278.40
54946;DHT22;40846;44.788;20.486;2022-11-11T07:55:54;281.60;2278.40
54946;DHT22;40846;44.788;20.486;2022-11-11T07:58:20;281.70;2278.40
54946;DHT22;40846;44.788;20.486;2022-11-11T08:00:46;281.80;2278.40
54946;DHT22;40846;44.788;20.486;2022-11-11T08:03:12;282.00;2278.40
54946;DHT22;40846;44.788;20.486;2022-11-11T08:05:40;282.10;2278.40
54946;DHT22;40846;44.788;20.486;2022-11-11T08:08:07;282.10;2278.40
54946;DHT22;40846;44.788;20.486;2022-11-11T08:10:34;282.20;2278.40
54946;DHT22;40846;44.788;20.486;2022-11-11T08:13:00;282.10;2278.40
54946;DHT22;40846;44.788;20.486;2022-11-11T08:15:44;282.20;2278.40
54946;DHT22;40846;44.788;20.486;2022-11-11T08:18:10;282.10;2278.40
54946;DHT22;40846;44.788;20.486;2022-11-11T08:20:37;282.10;2278.40
54946;DHT22;40846;44.788;20.486;2022-11-11T08:23:03;282.20;2278.40
54946;DHT22;40846;44.788;20.486;2022-11-11T08:25:30;282.20;2278.40
54946;DHT22;40846;44.788;20.486;2022-11-11T08:28:00;282.10;2278.40
54946;DHT22;40846;44.788;20.486;2022-11-11T08:30:26;282.20;2278.40
54946;DHT22;40846;44.788;20.486;2022-11-11T08:32:59;282.20;2278.40
54946;DHT22;40846;44.788;20.486;2022-11-11T08:35:25;282.20;2278.40
54946;DHT22;40846;44.788;20.486;2022-11-11T08:37:52;282.10;2278.40
54946;DHT22;40846;44.788;20.486;2022-11-11T08:40:18;282.20;2278.40
54946;DHT22;40846;44.788;20.486;2022-11-11T08:42:44;282.20;2278.40
54946;DHT22;40846;44.788;20.486;2022-11-11T08:45:10;282.10;2278.40
54946;DHT22;40846;44.788;20.486;2022-11-11T08:47:36;282.30;2278.40
54946;DHT22;40846;44.788;20.486;2022-11-11T08:50:02;282.20;2278.40
54946;DHT22;40846;44.788;20.486;2022-11-11T08:52:28;282.30;2278.40
54946;DHT22;40846;44.788;20.486;2022-11-11T08:54:54;282.30;2278.40
54946;DHT22;40846;44.788;20.486;2022-11-11T08:57:19;282.20;2278.40
54946;DHT22;40846;44.788;20.486;2022-11-11T08:59:45;282.20;2278.40
54946;DHT22;40846;44.788;20.486;2022-11-11T09:02:12;282.30;2278.40
54946;DHT22;40846;44.788;20.486;2022-11-11T09:04:41;282.20;2278.40
54946;DHT22;40846;44.788;20.486;2022-11-11T09:07:10;282.30;2278.40
54946;DHT22;40846;44.788;20.486;2022-11-11T09:12:05;307.40;2304.00
54946;DHT22;40846;44.788;20.486;2022-11-11T09:14:31;307.30;2304.00
54946;DHT22;40846;44.788;20.486;2022-11-11T09:16:56;307.20;2304.00
54946;DHT22;40846;44.788;20.486;2022-11-11T09:19:22;282.50;2278.40
54946;DHT22;40846;44.788;20.486;2022-11-11T09:21:50;282.50;2278.40
54946;DHT22;40846;44.788;20.486;2022-11-11T09:29:45;307.70;2304.00
54946;DHT22;40846;44.788;20.486;2022-11-11T09:32:11;307.50;2304.00
54946;DHT22;40846;44.788;20.486;2022-11-11T09:34:37;307.40;2304.00
54946;DHT22;40846;44.788;20.486;2022-11-11T09:37:06;307.80;2304.00
54946;DHT22;40846;44.788;20.486;2022-11-11T09:39:31;307.60;2304.00
54946;DHT22;40846;44.788;20.486;2022-11-11T09:45:15;307.60;2304.00
54946;DHT22;40846;44.788;20.486;2022-11-11T09:50:32;307.70;2304.00
54946;DHT22;40846;44.788;20.486;2022-11-11T09:53:10;307.60;2304.00
54946;DHT22;40846;44.788;20.486;2022-11-11T09:55:54;307.70;2304.00
54946;DHT22;40846;44.788;20.486;2022-11-11T09:58:48;308.00;2304.00
54946;DHT22;40846;44.788;20.486;2022-11-11T10:01:19;308.00;2304.00
54946;DHT22;40846;44.788;20.486;2022-11-11T10:06:54;308.10;2304.00
54946;DHT22;40846;44.788;20.486;2022-11-11T10:09:33;307.80;2304.00
54946;DHT22;40846;44.788;20.486;2022-11-11T10:12:10;307.80;2304.00
54946;DHT22;40846;44.788;20.486;2022-11-11T10:14:42;307.80;2304.00
54946;DHT22;40846;44.788;20.486;2022-11-11T10:17:36;307.90;2304.00
54946;DHT22;40846;44.788;20.486;2022-11-11T10:22:50;308.00;2304.00
54946;DHT22;40846;44.788;20.486;2022-11-11T10:25:20;308.00;2304.00
54946;DHT22;40846;44.788;20.486;2022-11-11T10:27:50;308.10;2304.00
54946;DHT22;40846;44.788;20.486;2022-11-11T10:30:25;307.90;2304.00
54946;DHT22;40846;44.788;20.486;2022-11-11T10:33:01;307.90;2304.00
54946;DHT22;40846;44.788;20.486;2022-11-11T10:35:29;307.90;2304.00
54946;DHT22;40846;44.788;20.486;2022-11-11T10:38:46;308.00;2304.00
54946;DHT22;40846;44.788;20.486;2022-11-11T10:40:53;333.00;2329.60
54946;DHT22;40846;44.788;20.486;2022-11-11T10:43:28;332.80;2329.60
54946;DHT22;40846;44.788;20.486;2022-11-11T10:46:12;332.80;2329.60
54946;DHT22;40846;44.788;20.486;2022-11-11T10:48:49;332.80;2329.60
54946;DHT22;40846;44.788;20.486;2022-11-11T10:51:17;332.90;2329.60
54946;DHT22;40846;44.788;20.486;2022-11-11T10:53:53;332.90;2329.60
54946;DHT22;40846;44.788;20.486;2022-11-11T10:59:23;332.80;2329.60
54946;DHT22;40846;44.788;20.486;2022-11-11T11:02:06;332.80;2329.60
54946;DHT22;40846;44.788;20.486;2022-11-11T11:04:43;332.80;2329.60
54946;DHT22;40846;44.788;20.486;2022-11-11T11:07:14;332.90;2329.60
54946;DHT22;40846;44.788;20.486;2022-11-11T11:10:07;333.00;2329.60
54946;DHT22;40846;44.788;20.486;2022-11-11T11:12:51;333.00;2329.60
54946;DHT22;40846;44.788;20.486;2022-11-11T11:15:20;333.00;2329.60
54946;DHT22;40846;44.788;20.486;2022-11-11T11:20:19;333.10;2329.60
54946;DHT22;40846;44.788;20.486;2022-11-11T11:22:54;333.10;2329.60
54946;DHT22;40846;44.788;20.486;2022-11-11T11:25:31;333.20;2329.60
54946;DHT22;40846;44.788;20.486;2022-11-11T11:30:37;333.40;2329.60
54946;DHT22;40846;44.788;20.486;2022-11-11T11:33:07;333.30;2329.60
54946;DHT22;40846;44.788;20.486;2022-11-11T11:35:39;333.40;2329.60
54946;DHT22;40846;44.788;20.486;2022-11-11T11:38:07;333.50;2329.60
54946;DHT22;40846;44.788;20.486;2022-11-11T11:43:35;333.40;2329.60
54946;DHT22;40846;44.788;20.486;2022-11-11T11:46:26;333.40;2329.60
54946;DHT22;40846;44.788;20.486;2022-11-11T11:54:40;333.60;2329.60
54946;DHT22;40846;44.788;20.486;2022-11-11T12:00:11;333.70;2329.60
54946;DHT22;40846;44.788;20.486;2022-11-11T12:03:39;358.40;2329.60
54946;DHT22;40846;44.788;20.486;2022-11-11T12:05:49;358.50;2329.60
54946;DHT22;40846;44.788;20.486;2022-11-11T12:11:12;358.60;2329.60
54946;DHT22;40846;44.788;20.486;2022-11-11T12:54:23;358.90;2329.60
54946;DHT22;40846;44.788;20.486;2022-11-11T12:57:01;359.00;2329.60
54946;DHT22;40846;44.788;20.486;2022-11-11T13:02:51;358.80;2329.60
54946;DHT22;40846;44.788;20.486;2022-11-11T13:05:40;358.80;2329.60
54946;DHT22;40846;44.788;20.486;2022-11-11T13:11:10;358.60;2329.60
54946;DHT22;40846;44.788;20.486;2022-11-11T13:13:52;358.70;2329.60
54946;DHT22;40846;44.788;20.486;2022-11-11T13:16:22;358.70;2329.60
54946;DHT22;40846;44.788;20.486;2022-11-11T13:19:02;358.70;2329.60
54946;DHT22;40846;44.788;20.486;2022-11-11T13:21:58;358.60;2329.60
54946;DHT22;40846;44.788;20.486;2022-11-11T13:24:25;358.60;2329.60
54946;DHT22;40846;44.788;20.486;2022-11-11T13:32:59;358.80;2329.60
54946;DHT22;40846;44.788;20.486;2022-11-11T13:37:53;358.90;2329.60
54946;DHT22;40846;44.788;20.486;2022-11-11T13:40:36;358.90;2329.60
54946;DHT22;40846;44.788;20.486;2022-11-11T13:43:03;358.90;2329.60
54946;DHT22;40846;44.788;20.486;2022-11-11T13:45:36;358.90;2329.60
54946;DHT22;40846;44.788;20.486;2022-11-11T13:48:05;359.00;2329.60
54946;DHT22;40846;44.788;20.486;2022-11-11T13:50:32;359.10;2329.60
54946;DHT22;40846;44.788;20.486;2022-11-11T13:53:06;359.00;2329.60
54946;DHT22;40846;44.788;20.486;2022-11-11T13:55:42;359.00;2329.60
54946;DHT22;40846;44.788;20.486;2022-11-11T13:58:50;358.90;2329.60
54946;DHT22;40846;44.788;20.486;2022-11-11T14:01:16;358.90;2329.60
54946;DHT22;40846;44.788;20.486;2022-11-11T14:21:55;358.90;2329.60
54946;DHT22;40846;44.788;20.486;2022-11-11T14:24:34;359.00;2329.60
54946;DHT22;40846;44.788;20.486;2022-11-11T14:27:27;359.00;2329.60
54946;DHT22;40846;44.788;20.486;2022-11-11T14:47:56;358.70;2329.60
54946;DHT22;40846;44.788;20.486;2022-11-11T14:53:07;358.70;2329.60
54946;DHT22;40846;44.788;20.486;2022-11-11T14:55:35;358.70;2329.60
54946;DHT22;40846;44.788;20.486;2022-11-11T15:00:45;358.60;2329.60
54946;DHT22;40846;44.788;20.486;2022-11-11T15:06:11;358.50;2329.60
54946;DHT22;40846;44.788;20.486;2022-11-11T15:14:03;358.60;2329.60
54946;DHT22;40846;44.788;20.486;2022-11-11T15:22:11;358.60;2329.60
54946;DHT22;40846;44.788;20.486;2022-11-11T15:30:20;358.60;2329.60
54946;DHT22;40846;44.788;20.486;2022-11-11T15:33:08;358.60;2329.60
54946;DHT22;40846;44.788;20.486;2022-11-11T15:35:43;358.60;2329.60
54946;DHT22;40846;44.788;20.486;2022-11-11T15:38:13;358.50;2329.60
54946;DHT22;40846;44.788;20.486;2022-11-11T15:40:47;358.50;2329.60
54946;DHT22;40846;44.788;20.486;2022-11-11T15:43:21;358.60;2329.60
54946;DHT22;40846;44.788;20.486;2022-11-11T15:45:59;358.60;2329.60
54946;DHT22;40846;44.788;20.486;2022-11-11T15:48:48;358.60;2329.60
54946;DHT22;40846;44.788;20.486;2022-11-11T15:51:21;358.60;2329.60
54946;DHT22;40846;44.788;20.486;2022-11-11T15:53:50;358.60;2329.60
54946;DHT22;40846;44.788;20.486;2022-11-11T15:56:29;358.50;2329.60
54946;DHT22;40846;44.788;20.486;2022-11-11T15:58:56;358.50;2329.60
54946;DHT22;40846;44.788;20.486;2022-11-11T16:01:26;358.50;2329.60
54946;DHT22;40846;44.788;20.486;2022-11-11T16:03:53;358.60;2329.60
54946;DHT22;40846;44.788;20.486;2022-11-11T16:06:20;358.60;2329.60
54946;DHT22;40846;44.788;20.486;2022-11-11T16:08:49;358.60;2329.60
54946;DHT22;40846;44.788;20.486;2022-11-11T16:11:17;358.60;2329.60
54946;DHT22;40846;44.788;20.486;2022-11-11T16:13:58;358.60;2329.60
54946;DHT22;40846;44.788;20.486;2022-11-11T16:16:30;358.60;2329.60
54946;DHT22;40846;44.788;20.486;2022-11-11T16:22:02;358.60;2329.60
54946;DHT22;40846;44.788;20.486;2022-11-11T16:24:32;358.40;2329.60
54946;DHT22;40846;44.788;20.486;2022-11-11T16:27:04;358.40;2329.60
54946;DHT22;40846;44.788;20.486;2022-11-11T16:29:36;358.40;2329.60
54946;DHT22;40846;44.788;20.486;2022-11-11T16:34:48;358.50;2329.60
54946;DHT22;40846;44.788;20.486;2022-11-11T16:37:15;358.40;2329.60
54946;DHT22;40846;44.788;20.486;2022-11-11T16:39:45;358.40;2329.60
54946;DHT22;40846;44.788;20.486;2022-11-11T16:42:21;358.40;2329.60
54946;DHT22;40846;44.788;20.486;2022-11-11T16:50:01;358.40;2329.60
54946;DHT22;40846;44.788;20.486;2022-11-11T16:52:27;333.70;2329.60
54946;DHT22;40846;44.788;20.486;2022-11-11T16:54:56;333.70;2329.60
54946;DHT22;40846;44.788;20.486;2022-11-11T16:57:27;333.70;2329.60
54946;DHT22;40846;44.788;20.486;2022-11-11T16:59:58;358.40;2329.60
54946;DHT22;40846;44.788;20.486;2022-11-11T17:02:25;358.40;2329.60
54946;DHT22;40846;44.788;20.486;2022-11-11T17:04:53;358.40;2329.60
54946;DHT22;40846;44.788;20.486;2022-11-11T17:07:32;358.40;2329.60
54946;DHT22;40846;44.788;20.486;2022-11-11T17:10:18;333.70;2329.60
54946;DHT22;40846;44.788;20.486;2022-11-11T17:12:44;333.60;2329.60
54946;DHT22;40846;44.788;20.486;2022-11-11T17:15:13;333.60;2329.60
54946;DHT22;40846;44.788;20.486;2022-11-11T17:17:41;333.70;2329.60
54946;DHT22;40846;44.788;20.486;2022-11-11T17:20:14;333.60;2329.60
54946;DHT22;40846;44.788;20.486;2022-11-11T17:22:55;333.60;2329.60
54946;DHT22;40846;44.788;20.486;2022-11-11T17:25:21;333.60;2329.60
54946;DHT22;40846;44.788;20.486;2022-11-11T17:27:46;358.60;2329.60
54946;DHT22;40846;44.788;20.486;2022-11-11T17:30:13;358.60;2329.60
54946;DHT22;40846;44.788;20.486;2022-11-11T17:32:39;358.50;2329.60
54946;DHT22;40846;44.788;20.486;2022-11-11T17:35:08;358.60;2329.60
54946;DHT22;40846;44.788;20.486;2022-11-11T17:42:30;358.60;2329.60
54946;DHT22;40846;44.788;20.486;2022-11-11T17:44:56;333.70;2329.60
54946;DHT22;40846;44.788;20.486;2022-11-11T17:47:21;358.40;2329.60
54946;DHT22;40846;44.788;20.486;2022-11-11T17:49:47;333.70;2329.60
54946;DHT22;40846;44.788;20.486;2022-11-11T17:52:13;333.70;2329.60
54946;DHT22;40846;44.788;20.486;2022-11-11T17:54:38;333.70;2329.60
54946;DHT22;40846;44.788;20.486;2022-11-11T17:57:04;333.70;2329.60
54946;DHT22;40846;44.788;20.486;2022-11-11T17:59:30;333.70;2329.60
54946;DHT22;40846;44.788;20.486;2022-11-11T18:01:56;333.70;2329.60
54946;DHT22;40846;44.788;20.486;2022-11-11T18:04:21;358.40;2329.60
54946;DHT22;40846;44.788;20.486;2022-11-11T18:06:47;333.70;2329.60
54946;DHT22;40846;44.788;20.486;2022-11-11T18:09:13;333.70;2329.60
54946;DHT22;40846;44.788;20.486;2022-11-11T18:11:39;358.40;2329.60
54946;DHT22;40846;44.788;20.486;2022-11-11T18:14:04;358.40;2329.60
54946;DHT22;40846;44.788;20.486;2022-11-11T18:16:30;358.70;2329.60
54946;DHT22;40846;44.788;20.486;2022-11-11T18:18:56;358.50;2329.60
54946;DHT22;40846;44.788;20.486;2022-11-11T18:21:26;358.60;2329.60
54946;DHT22;40846;44.788;20.486;2022-11-11T18:23:52;333.70;2329.60
54946;DHT22;40846;44.788;20.486;2022-11-11T18:26:18;333.70;2329.60
54946;DHT22;40846;44.788;20.486;2022-11-11T18:28:45;333.70;2329.60
54946;DHT22;40846;44.788;20.486;2022-11-11T18:31:12;333.60;2329.60
54946;DHT22;40846;44.788;20.486;2022-11-11T18:33:40;333.70;2329.60
54946;DHT22;40846;44.788;20.486;2022-11-11T18:36:12;333.70;2329.60
54946;DHT22;40846;44.788;20.486;2022-11-11T18:38:38;358.40;2329.60
54946;DHT22;40846;44.788;20.486;2022-11-11T18:41:12;358.40;2329.60
54946;DHT22;40846;44.788;20.486;2022-11-11T18:43:41;333.70;2329.60
54946;DHT22;40846;44.788;20.486;2022-11-11T18:46:14;333.70;2329.60
54946;DHT22;40846;44.788;20.486;2022-11-11T18:48:40;358.40;2329.60
54946;DHT22;40846;44.788;20.486;2022-11-11T18:51:11;333.70;2329.60
54946;DHT22;40846;44.788;20.486;2022-11-11T18:53:38;358.40;2329.60
54946;DHT22;40846;44.788;20.486;2022-11-11T18:56:12;333.70;2329.60
54946;DHT22;40846;44.788;20.486;2022-11-11T18:58:59;358.40;2329.60
54946;DHT22;40846;44.788;20.486;2022-11-11T19:01:37;358.40;2329.60
54946;DHT22;40846;44.788;20.486;2022-11-11T19:04:09;358.40;2329.60
54946;DHT22;40846;44.788;20.486;2022-11-11T19:06:38;358.40;2329.60
54946;DHT22;40846;44.788;20.486;2022-11-11T19:09:11;358.50;2329.60
54946;DHT22;40846;44.788;20.486;2022-11-11T19:11:42;358.40;2329.60
54946;DHT22;40846;44.788;20.486;2022-11-11T19:17:07;333.70;2329.60
54946;DHT22;40846;44.788;20.486;2022-11-11T19:19:39;358.40;2329.60
54946;DHT22;40846;44.788;20.486;2022-11-11T19:22:04;358.40;2329.60
54946;DHT22;40846;44.788;20.486;2022-11-11T19:24:30;333.70;2329.60
54946;DHT22;40846;44.788;20.486;2022-11-11T19:26:56;333.60;2329.60
54946;DHT22;40846;44.788;20.486;2022-11-11T19:29:21;333.60;2329.60
54946;DHT22;40846;44.788;20.486;2022-11-11T19:34:13;358.40;2329.60
54946;DHT22;40846;44.788;20.486;2022-11-11T19:36:39;333.40;2329.60
54946;DHT22;40846;44.788;20.486;2022-11-11T19:39:05;333.60;2329.60
54946;DHT22;40846;44.788;20.486;2022-11-11T19:41:31;333.30;2329.60
54946;DHT22;40846;44.788;20.486;2022-11-11T19:43:57;333.40;2329.60
54946;DHT22;40846;44.788;20.486;2022-11-11T19:46:24;333.30;2329.60
54946;DHT22;40846;44.788;20.486;2022-11-11T19:48:55;333.30;2329.60
54946;DHT22;40846;44.788;20.486;2022-11-11T19:51:23;333.70;2329.60
54946;DHT22;40846;44.788;20.486;2022-11-11T19:53:49;333.50;2329.60
54946;DHT22;40846;44.788;20.486;2022-11-11T19:56:17;333.50;2329.60
54946;DHT22;40846;44.788;20.486;2022-11-11T19:58:43;333.50;2329.60
54946;DHT22;40846;44.788;20.486;2022-11-11T20:03:40;333.50;2329.60
54946;DHT22;40846;44.788;20.486;2022-11-11T20:06:16;333.40;2329.60
54946;DHT22;40846;44.788;20.486;2022-11-11T20:08:43;333.40;2329.60
54946;DHT22;40846;44.788;20.486;2022-11-11T20:11:09;333.40;2329.60
54946;DHT22;40846;44.788;20.486;2022-11-11T20:13:35;333.40;2329.60
54946;DHT22;40846;44.788;20.486;2022-11-11T20:16:02;333.60;2329.60
54946;DHT22;40846;44.788;20.486;2022-11-11T20:18:29;333.20;2329.60
54946;DHT22;40846;44.788;20.486;2022-11-11T20:20:59;333.10;2329.60
54946;DHT22;40846;44.788;20.486;2022-11-11T20:23:25;333.10;2329.60
54946;DHT22;40846;44.788;20.486;2022-11-11T20:25:52;333.20;2329.60
54946;DHT22;40846;44.788;20.486;2022-11-11T20:28:17;333.20;2329.60
54946;DHT22;40846;44.788;20.486;2022-11-11T20:30:43;333.30;2329.60
54946;DHT22;40846;44.788;20.486;2022-11-11T20:33:10;333.20;2329.60
54946;DHT22;40846;44.788;20.486;2022-11-11T20:35:35;333.30;2329.60
54946;DHT22;40846;44.788;20.486;2022-11-11T20:38:01;333.30;2329.60
54946;DHT22;40846;44.788;20.486;2022-11-11T20:40:27;333.10;2329.60
54946;DHT22;40846;44.788;20.486;2022-11-11T20:42:53;332.90;2329.60
54946;DHT22;40846;44.788;20.486;2022-11-11T20:47:44;308.10;2304.00
54946;DHT22;40846;44.788;20.486;2022-11-11T20:52:36;307.80;2304.00
54946;DHT22;40846;44.788;20.486;2022-11-11T20:55:08;307.70;2304.00
54946;DHT22;40846;44.788;20.486;2022-11-11T20:57:34;307.70;2304.00
54946;DHT22;40846;44.788;20.486;2022-11-11T21:00:00;307.50;2304.00